createdAt,value
2017-11-30T00:00:13.000Z,96.90
2017-11-30T00:02:39.361Z,96.90
2017-11-30T00:05:06.437Z,96.80
2017-11-30T00:07:35.290Z,96.80
2017-11-30T00:10:01.635Z,96.80
2017-11-30T00:12:28.735Z,97.70
2017-11-30T00:14:55.417Z,97.00
2017-11-30T00:17:22.465Z,97.40
2017-11-30T00:19:48.827Z,96.70
2017-11-30T00:22:15.933Z,96.40
2017-11-30T00:24:42.906Z,96.10
2017-11-30T00:27:09.294Z,96.00
2017-11-30T00:29:35.636Z,96.40
2017-11-30T00:32:02.742Z,96.70
2017-11-30T00:34:29.045Z,96.00
2017-11-30T00:36:55.385Z,96.50
2017-11-30T00:39:22.665Z,96.60
2017-11-30T00:41:50.125Z,95.80
2017-11-30T00:44:44.100Z,96.30
2017-11-30T00:47:10.457Z,96.30
2017-11-30T00:49:38.398Z,96.20
2017-11-30T00:52:06.320Z,96.10
2017-11-30T00:54:33.406Z,96.40
2017-11-30T00:57:00.593Z,96.30
2017-11-30T00:59:28.045Z,96.70
2017-11-30T01:01:54.439Z,96.60
2017-11-30T01:04:20.797Z,96.60
2017-11-30T01:06:47.366Z,96.30
2017-11-30T01:09:13.693Z,96.30
2017-11-30T01:11:40.105Z,96.70
2017-11-30T01:14:06.455Z,96.50
2017-11-30T01:16:33.723Z,96.50
2017-11-30T01:19:00.058Z,96.50
2017-11-30T01:21:27.230Z,96.50
2017-11-30T01:23:53.869Z,96.50
2017-11-30T01:26:20.922Z,96.40
2017-11-30T01:28:49.097Z,97.00
2017-11-30T01:31:15.434Z,96.30
2017-11-30T01:33:42.585Z,96.00
2017-11-30T01:36:08.917Z,96.10
2017-11-30T01:38:36.185Z,96.80
2017-11-30T01:41:03.253Z,95.40
2017-11-30T01:43:30.291Z,95.40
2017-11-30T01:45:57.758Z,95.80
2017-11-30T01:48:24.828Z,95.80
2017-11-30T01:50:51.897Z,96.30
2017-11-30T01:53:19.826Z,96.00
2017-11-30T01:55:47.798Z,95.90
2017-11-30T01:58:14.166Z,95.80
2017-11-30T02:00:41.273Z,95.00
2017-11-30T02:03:08.354Z,95.10
2017-11-30T02:05:34.682Z,95.00
2017-11-30T02:08:01.010Z,94.80
2017-11-30T02:10:27.657Z,95.30
2017-11-30T02:12:54.002Z,95.10
2017-11-30T02:15:20.441Z,94.90
2017-11-30T02:17:49.130Z,95.10
2017-11-30T02:20:15.529Z,95.00
2017-11-30T02:22:41.913Z,95.20
2017-11-30T02:25:09.161Z,94.90
2017-11-30T02:27:36.224Z,94.30
2017-11-30T02:30:02.603Z,94.20
2017-11-30T02:32:30.113Z,93.40
2017-11-30T02:34:56.473Z,93.30
2017-11-30T02:37:22.898Z,93.60
2017-11-30T02:39:50.860Z,93.90
2017-11-30T02:42:18.139Z,93.30
2017-11-30T02:44:45.378Z,94.00
2017-11-30T02:47:12.639Z,93.60
2017-11-30T02:49:39.586Z,93.80
2017-11-30T02:52:06.059Z,94.00
2017-11-30T02:54:33.161Z,94.20
2017-11-30T02:56:59.825Z,94.10
2017-11-30T02:59:26.197Z,94.00
2017-11-30T03:01:53.417Z,94.90
2017-11-30T03:04:20.273Z,94.90
2017-11-30T03:06:46.653Z,93.50
2017-11-30T03:09:13.040Z,93.70
2017-11-30T03:11:40.425Z,93.80
2017-11-30T03:14:06.824Z,93.70
2017-11-30T03:16:33.891Z,93.80
2017-11-30T03:19:00.253Z,94.30
2017-11-30T03:21:27.359Z,93.80
2017-11-30T03:23:54.438Z,93.70
2017-11-30T03:26:20.777Z,94.10
2017-11-30T03:28:47.137Z,94.70
2017-11-30T03:31:13.514Z,93.90
2017-11-30T03:33:40.697Z,94.10
2017-11-30T03:36:07.977Z,93.80
2017-11-30T03:38:35.015Z,94.30
2017-11-30T03:41:02.413Z,94.30
2017-11-30T03:43:30.146Z,94.10
2017-11-30T03:45:56.480Z,94.00
2017-11-30T03:48:23.733Z,93.80
2017-11-30T03:50:50.078Z,93.50
2017-11-30T03:53:17.160Z,93.60
2017-11-30T03:55:44.595Z,94.10
2017-11-30T03:58:10.961Z,94.10
2017-11-30T04:00:38.162Z,94.50
2017-11-30T04:03:04.779Z,93.70
2017-11-30T04:05:31.097Z,94.10
2017-11-30T04:07:58.173Z,94.20
2017-11-30T04:10:25.264Z,94.20
2017-11-30T04:12:53.124Z,94.50
2017-11-30T04:15:19.457Z,94.50
2017-11-30T04:17:46.528Z,94.50
2017-11-30T04:20:12.874Z,94.50
2017-11-30T04:22:40.024Z,94.30
2017-11-30T04:25:06.345Z,94.70
2017-11-30T04:27:32.706Z,94.80
2017-11-30T04:30:00.158Z,94.80
2017-11-30T04:32:27.646Z,94.10
2017-11-30T04:34:54.721Z,94.60
2017-11-30T04:37:22.134Z,94.60
2017-11-30T04:39:49.894Z,94.70
2017-11-30T04:42:17.817Z,94.80
2017-11-30T04:44:44.144Z,94.10
2017-11-30T04:47:11.985Z,94.30
2017-11-30T04:49:39.137Z,94.30
2017-11-30T04:52:06.495Z,94.20
2017-11-30T04:54:32.873Z,94.50
2017-11-30T04:56:59.986Z,95.20
2017-11-30T04:59:26.654Z,95.20
2017-11-30T05:01:52.961Z,95.40
2017-11-30T05:04:20.105Z,95.60
2017-11-30T05:06:46.761Z,95.60
2017-11-30T05:09:13.157Z,95.60
2017-11-30T05:11:39.616Z,95.80
2017-11-30T05:14:06.494Z,95.80
2017-11-30T05:16:33.657Z,95.80
2017-11-30T05:19:01.622Z,94.40
2017-11-30T05:21:28.098Z,94.40
2017-11-30T05:23:55.184Z,94.90
2017-11-30T05:26:21.864Z,94.80
2017-11-30T05:28:48.699Z,95.10
2017-11-30T05:31:15.137Z,95.10
2017-11-30T05:33:42.326Z,95.20
2017-11-30T05:36:10.374Z,96.00
2017-11-30T05:38:37.422Z,96.70
2017-11-30T05:41:03.753Z,96.10
2017-11-30T05:43:31.434Z,96.20
2017-11-30T05:45:57.804Z,96.50
2017-11-30T05:48:24.921Z,96.70
2017-11-30T05:50:51.257Z,96.50
2017-11-30T05:53:17.593Z,97.20
2017-11-30T05:55:44.850Z,96.70
2017-11-30T05:58:11.905Z,96.10
2017-11-30T06:00:39.158Z,96.30
2017-11-30T06:03:05.499Z,95.90
2017-11-30T06:05:31.841Z,96.10
2017-11-30T06:07:58.886Z,95.20
2017-11-30T06:10:25.201Z,95.80
2017-11-30T06:12:51.532Z,96.10
2017-11-30T06:15:18.109Z,95.80
2017-11-30T06:17:45.157Z,94.90
2017-11-30T06:20:12.201Z,95.50
2017-11-30T06:22:38.530Z,94.60
2017-11-30T06:25:04.895Z,95.10
2017-11-30T06:27:32.857Z,95.30
2017-11-30T06:29:59.196Z,95.20
2017-11-30T06:32:26.246Z,95.30
2017-11-30T06:34:52.581Z,95.20
2017-11-30T06:37:19.729Z,95.60
2017-11-30T06:39:46.683Z,95.60
2017-11-30T06:42:13.845Z,95.60
2017-11-30T06:44:40.224Z,95.80
2017-11-30T06:47:07.033Z,95.40
2017-11-30T06:49:34.648Z,95.70
2017-11-30T06:52:01.864Z,96.00
2017-11-30T06:54:28.938Z,96.60
2017-11-30T06:56:56.045Z,95.60
2017-11-30T06:59:22.802Z,95.50
2017-11-30T07:01:49.849Z,95.10
2017-11-30T07:04:16.198Z,94.20
2017-11-30T07:06:42.548Z,94.50
2017-11-30T07:09:10.302Z,93.90
2017-11-30T07:11:37.356Z,93.90
2017-11-30T07:14:05.154Z,92.40
2017-11-30T07:16:32.225Z,93.00
2017-11-30T07:18:59.630Z,93.10
2017-11-30T07:21:25.956Z,93.80
2017-11-30T07:23:52.323Z,93.90
2017-11-30T07:26:19.674Z,94.50
2017-11-30T07:28:46.009Z,94.40
2017-11-30T07:31:12.452Z,92.70
2017-11-30T07:33:40.528Z,92.30
2017-11-30T07:36:07.670Z,92.20
2017-11-30T07:38:34.926Z,93.40
2017-11-30T07:41:01.254Z,91.90
2017-11-30T07:43:28.313Z,93.30
2017-11-30T07:45:54.658Z,92.10
2017-11-30T07:48:22.016Z,93.30
2017-11-30T07:50:48.343Z,94.10
2017-11-30T07:53:14.673Z,93.60
2017-11-30T07:55:41.330Z,92.60
2017-11-30T07:58:08.481Z,92.60
2017-11-30T08:00:35.752Z,92.20
2017-11-30T08:03:02.081Z,91.70
2017-11-30T08:05:28.417Z,92.20
2017-11-30T08:07:55.056Z,92.40
2017-11-30T08:10:22.144Z,91.60
2017-11-30T08:12:49.991Z,91.70
2017-11-30T08:15:17.094Z,92.20
2017-11-30T08:17:44.286Z,92.30
2017-11-30T08:20:10.625Z,90.80
2017-11-30T08:22:36.984Z,91.40
2017-11-30T08:25:03.711Z,91.00
2017-11-30T08:27:30.064Z,91.30
2017-11-30T08:29:57.286Z,91.20
2017-11-30T08:32:24.661Z,91.20
2017-11-30T08:34:52.486Z,92.40
2017-11-30T08:37:18.826Z,92.30
2017-11-30T08:39:46.121Z,93.00
2017-11-30T08:42:13.281Z,91.80
2017-11-30T08:44:39.689Z,89.90
2017-11-30T08:47:07.087Z,90.50
2017-11-30T08:49:35.265Z,91.10
2017-11-30T08:52:01.739Z,91.20
2017-11-30T08:54:28.825Z,89.80
2017-11-30T08:56:55.497Z,89.70
2017-11-30T08:59:21.887Z,90.50
2017-11-30T09:01:48.338Z,90.20
2017-11-30T09:04:15.022Z,90.70
2017-11-30T09:06:42.273Z,90.60
2017-11-30T09:09:09.538Z,89.50
2017-11-30T09:11:36.590Z,89.50
2017-11-30T09:14:02.944Z,89.60
2017-11-30T09:16:30.025Z,89.10
2017-11-30T09:18:56.617Z,89.70
2017-11-30T09:21:23.006Z,89.60
2017-11-30T09:23:49.433Z,89.20
2017-11-30T09:26:16.072Z,89.00
2017-11-30T09:28:43.166Z,90.00
2017-11-30T09:31:10.281Z,90.00
2017-11-30T09:33:38.222Z,87.90
2017-11-30T09:36:04.577Z,87.90
2017-11-30T09:38:31.611Z,87.70
2017-11-30T09:40:57.937Z,87.70
2017-11-30T09:43:24.952Z,86.90
2017-11-30T09:45:51.764Z,87.50
2017-11-30T09:48:19.353Z,88.20
2017-11-30T09:50:45.681Z,87.60
2017-11-30T09:53:14.132Z,85.80
2017-11-30T09:55:40.475Z,85.80
2017-11-30T09:58:09.053Z,87.40
2017-11-30T10:00:35.374Z,87.00
2017-11-30T10:03:01.698Z,85.20
2017-11-30T10:05:28.369Z,86.40
2017-11-30T10:07:55.435Z,86.70
2017-11-30T10:10:23.234Z,86.80
2017-11-30T10:12:50.318Z,85.30
2017-11-30T10:15:16.885Z,85.30
2017-11-30T10:17:43.195Z,86.80
2017-11-30T10:20:09.640Z,85.70
2017-11-30T10:22:36.443Z,85.80
2017-11-30T10:25:03.513Z,84.80
2017-11-30T10:27:30.617Z,84.90
2017-11-30T10:29:58.281Z,85.60
2017-11-30T10:32:25.439Z,87.00
2017-11-30T10:34:51.803Z,85.70
2017-11-30T10:37:18.870Z,86.40
2017-11-30T10:39:46.713Z,86.50
2017-11-30T10:42:13.759Z,86.60
2017-11-30T10:44:40.854Z,84.90
2017-11-30T10:47:07.198Z,84.00
2017-11-30T10:49:34.781Z,86.20
2017-11-30T10:52:01.101Z,86.20
2017-11-30T10:54:27.430Z,84.90
2017-11-30T10:56:54.123Z,85.70
2017-11-30T10:59:20.455Z,86.30
2017-11-30T11:01:46.907Z,85.00
2017-11-30T11:04:14.869Z,83.70
2017-11-30T11:06:41.194Z,83.70
2017-11-30T11:09:07.530Z,83.70
2017-11-30T11:11:34.133Z,84.70
2017-11-30T11:14:00.473Z,84.50
2017-11-30T11:16:26.910Z,84.10
2017-11-30T11:18:54.056Z,84.10
2017-11-30T11:21:21.105Z,82.90
2017-11-30T11:23:48.173Z,83.80
2017-11-30T11:26:15.174Z,83.80
2017-11-30T11:28:41.513Z,83.50
2017-11-30T11:31:07.835Z,84.20
2017-11-30T11:33:35.002Z,81.70
2017-11-30T11:36:02.058Z,80.80
2017-11-30T11:38:29.774Z,84.40
2017-11-30T11:40:56.109Z,84.20
2017-11-30T11:43:23.113Z,84.40
2017-11-30T11:45:49.467Z,83.50
2017-11-30T11:48:16.497Z,85.30
2017-11-30T11:50:42.837Z,84.20
2017-11-30T11:53:09.201Z,84.70
2017-11-30T11:55:36.318Z,85.40
2017-11-30T11:58:02.653Z,85.40
2017-11-30T12:00:29.073Z,85.40
2017-11-30T12:02:56.209Z,83.60
2017-11-30T12:05:22.534Z,85.60
2017-11-30T12:07:49.606Z,83.20
2017-11-30T12:10:17.026Z,83.10
2017-11-30T12:12:43.369Z,84.10
2017-11-30T12:15:11.217Z,84.50
2017-11-30T12:17:37.553Z,84.00
2017-11-30T12:20:03.873Z,85.30
2017-11-30T12:22:31.041Z,85.10
2017-11-30T12:24:57.382Z,82.70
2017-11-30T12:27:23.713Z,81.80
2017-11-30T12:29:50.102Z,82.80
2017-11-30T12:32:18.199Z,83.50
2017-11-30T12:34:45.494Z,82.70
2017-11-30T12:37:13.309Z,80.70
2017-11-30T12:39:40.377Z,80.60
2017-11-30T12:42:07.840Z,79.80
2017-11-30T12:44:34.175Z,79.90
2017-11-30T12:47:02.800Z,81.30
2017-11-30T12:49:29.854Z,81.70
2017-11-30T12:51:56.172Z,82.00
2017-11-30T12:54:22.509Z,83.60
2017-11-30T12:56:49.160Z,81.90
2017-11-30T12:59:16.321Z,82.70
2017-11-30T13:01:42.708Z,81.60
2017-11-30T13:04:09.816Z,82.90
2017-11-30T13:06:36.151Z,83.80
2017-11-30T13:09:03.411Z,84.50
2017-11-30T13:11:29.762Z,83.30
2017-11-30T13:13:56.164Z,83.60
2017-11-30T13:16:22.583Z,82.70
2017-11-30T13:18:48.958Z,83.70
2017-11-30T13:21:16.111Z,81.90
2017-11-30T13:23:42.458Z,83.90
2017-11-30T13:26:09.118Z,82.90
2017-11-30T13:28:35.732Z,82.00
2017-11-30T13:31:02.079Z,81.90
2017-11-30T13:33:29.845Z,81.60
2017-11-30T13:35:57.681Z,82.10
2017-11-30T13:38:24.720Z,82.10
2017-11-30T13:40:51.047Z,83.10
2017-11-30T13:43:18.047Z,82.10
2017-11-30T13:45:44.380Z,82.80
2017-11-30T13:48:11.541Z,84.40
2017-11-30T13:50:37.884Z,83.20
2017-11-30T13:53:04.217Z,81.30
2017-11-30T13:55:30.892Z,81.70
2017-11-30T13:57:58.824Z,83.00
2017-11-30T14:00:25.152Z,83.00
2017-11-30T14:02:51.473Z,81.70
2017-11-30T14:05:18.865Z,83.20
2017-11-30T14:07:45.205Z,83.80
2017-11-30T14:10:12.519Z,82.00
2017-11-30T14:12:39.716Z,81.40
2017-11-30T14:15:06.056Z,83.50
2017-11-30T14:17:33.113Z,82.00
2017-11-30T14:20:00.213Z,82.90
2017-11-30T14:22:26.547Z,82.90
2017-11-30T14:24:52.920Z,82.50
2017-11-30T14:27:19.260Z,82.50
2017-11-30T14:29:45.686Z,83.20
2017-11-30T14:32:12.855Z,83.10
2017-11-30T14:34:39.180Z,82.70
2017-11-30T14:37:05.505Z,82.30
2017-11-30T14:39:32.597Z,83.30
2017-11-30T14:41:58.918Z,84.10
2017-11-30T14:44:26.084Z,84.40
2017-11-30T14:46:52.420Z,83.00
2017-11-30T14:49:19.504Z,84.50
2017-11-30T14:51:46.580Z,83.60
2017-11-30T14:54:14.292Z,83.50
2017-11-30T14:56:40.638Z,84.00
2017-11-30T14:59:06.968Z,84.80
2017-11-30T15:01:34.324Z,84.80
2017-11-30T15:04:01.375Z,85.40
2017-11-30T15:06:27.701Z,86.10
2017-11-30T15:08:54.092Z,86.00
2017-11-30T15:11:21.224Z,86.30
2017-11-30T15:13:48.348Z,86.50
2017-11-30T15:16:15.359Z,85.70
2017-11-30T15:18:41.677Z,86.20
2017-11-30T15:21:08.762Z,85.40
2017-11-30T15:23:35.544Z,85.40
2017-11-30T15:26:01.886Z,85.70
2017-11-30T15:28:28.321Z,85.70
2017-11-30T15:30:54.972Z,86.40
2017-11-30T15:33:21.923Z,86.40
2017-11-30T15:35:48.971Z,86.40
2017-11-30T15:38:16.129Z,86.10
2017-11-30T15:40:43.706Z,86.10
2017-11-30T15:43:10.844Z,85.80
2017-11-30T15:45:37.157Z,86.70
2017-11-30T15:48:04.345Z,86.70
2017-11-30T15:50:33.119Z,86.90
2017-11-30T15:53:00.496Z,86.90
2017-11-30T15:55:26.824Z,87.00
2017-11-30T15:57:53.976Z,87.30
2017-11-30T16:00:21.047Z,86.90
2017-11-30T16:02:48.263Z,86.40
2017-11-30T16:05:14.599Z,86.40
2017-11-30T16:07:42.783Z,86.40
2017-11-30T16:10:09.123Z,87.60
2017-11-30T16:12:36.333Z,87.10
2017-11-30T16:15:04.684Z,86.70
2017-11-30T16:17:31.024Z,86.60
2017-11-30T16:19:57.359Z,86.70
2017-11-30T16:22:24.111Z,87.60
2017-11-30T16:24:52.247Z,88.10
2017-11-30T16:27:18.604Z,88.10
2017-11-30T16:29:45.804Z,87.80
2017-11-30T16:32:13.544Z,87.10
2017-11-30T16:34:39.879Z,87.10
2017-11-30T16:37:06.244Z,87.00
2017-11-30T16:39:34.287Z,86.70
2017-11-30T16:42:00.640Z,86.70
2017-11-30T16:44:29.166Z,87.80
2017-11-30T16:46:56.572Z,87.80
2017-11-30T16:49:24.447Z,87.50
2017-11-30T16:51:51.614Z,87.10
2017-11-30T16:54:17.942Z,87.00
2017-11-30T16:56:44.327Z,87.00
2017-11-30T16:59:11.015Z,87.20
2017-11-30T17:01:38.268Z,87.40
2017-11-30T17:04:04.625Z,87.70
2017-11-30T17:06:30.960Z,88.40
2017-11-30T17:08:58.306Z,89.40
2017-11-30T17:11:25.460Z,89.40
2017-11-30T17:13:52.714Z,88.80
2017-11-30T17:16:19.192Z,88.30
2017-11-30T17:18:46.280Z,89.20
2017-11-30T17:21:12.955Z,88.40
2017-11-30T17:23:40.007Z,88.00
2017-11-30T17:26:06.369Z,88.30
2017-11-30T17:28:33.487Z,88.40
2017-11-30T17:31:00.757Z,88.10
2017-11-30T17:33:28.114Z,88.30
2017-11-30T17:35:55.239Z,89.50
2017-11-30T17:38:22.424Z,89.00
2017-11-30T17:40:48.828Z,89.30
2017-11-30T17:43:15.926Z,89.80
2017-11-30T17:45:43.188Z,90.20
2017-11-30T17:48:11.161Z,89.80
2017-11-30T17:50:38.240Z,89.30
2017-11-30T17:53:05.392Z,89.80
2017-11-30T17:55:32.813Z,89.90
2017-11-30T17:57:59.185Z,89.80
2017-11-30T18:00:27.236Z,89.60
2017-11-30T18:02:55.047Z,89.10
2017-11-30T18:05:22.180Z,89.00
2017-11-30T18:07:49.464Z,89.40
2017-11-30T18:10:16.672Z,89.50
2017-11-30T18:12:43.015Z,89.00
2017-11-30T18:15:10.054Z,88.40
2017-11-30T18:17:36.432Z,88.50
2017-11-30T18:20:03.529Z,88.40
2017-11-30T18:22:30.236Z,88.30
2017-11-30T18:24:57.760Z,88.40
2017-11-30T18:27:24.121Z,88.70
2017-11-30T18:29:51.297Z,88.10
2017-11-30T18:32:18.614Z,88.00
2017-11-30T18:34:45.666Z,88.40
2017-11-30T18:37:11.998Z,88.50
2017-11-30T18:39:39.564Z,88.20
2017-11-30T18:42:07.460Z,89.30
2017-11-30T18:44:34.578Z,88.60
2017-11-30T18:47:01.852Z,88.10
2017-11-30T18:49:29.863Z,88.60
2017-11-30T18:51:57.853Z,88.40
2017-11-30T18:54:25.162Z,88.40
2017-11-30T18:56:51.528Z,88.40
2017-11-30T18:59:18.588Z,88.10
2017-11-30T19:01:46.008Z,87.40
2017-11-30T19:04:12.357Z,87.50
2017-11-30T19:06:40.182Z,87.70
2017-11-30T19:09:07.160Z,87.70
2017-11-30T19:11:33.502Z,88.00
2017-11-30T19:13:59.894Z,87.50
2017-11-30T19:16:26.297Z,87.80
2017-11-30T19:18:52.788Z,88.00
2017-11-30T19:21:19.292Z,88.80
2017-11-30T19:23:46.892Z,89.60
2017-11-30T19:26:13.399Z,88.80
2017-11-30T19:28:41.403Z,89.00
2017-11-30T19:31:07.760Z,89.00
2017-11-30T19:33:35.059Z,88.90
2017-11-30T19:36:02.160Z,89.10
2017-11-30T19:38:29.350Z,89.00
2017-11-30T19:40:55.680Z,89.60
2017-11-30T19:43:23.864Z,89.40
2017-11-30T19:45:50.206Z,89.40
2017-11-30T19:48:17.660Z,90.50
2017-11-30T19:50:43.998Z,89.80
2017-11-30T19:53:10.332Z,89.60
2017-11-30T19:55:37.004Z,89.10
2017-11-30T19:58:04.065Z,88.50
2017-11-30T20:00:32.000Z,88.70
2017-11-30T20:02:59.456Z,88.70
2017-11-30T20:05:26.713Z,89.00
2017-11-30T20:07:53.831Z,89.30
2017-11-30T20:10:21.812Z,89.00
2017-11-30T20:12:48.232Z,89.10
2017-11-30T20:15:14.640Z,89.50
2017-11-30T20:17:41.151Z,89.30
2017-11-30T20:20:08.446Z,90.40
2017-11-30T20:22:35.626Z,89.40
2017-11-30T20:25:02.951Z,89.30
2017-11-30T20:27:29.346Z,89.90
2017-11-30T20:29:57.036Z,90.00
2017-11-30T20:32:24.811Z,89.80
2017-11-30T20:34:51.960Z,89.60
2017-11-30T20:37:19.035Z,89.30
2017-11-30T20:39:46.275Z,89.40
2017-11-30T20:42:14.244Z,89.50
2017-11-30T20:44:40.583Z,89.50
2017-11-30T20:47:06.991Z,90.00
2017-11-30T20:49:34.176Z,89.60
2017-11-30T20:52:00.519Z,89.00
2017-11-30T20:54:26.847Z,90.30
2017-11-30T20:56:54.001Z,92.90
2017-11-30T20:59:20.376Z,93.10
2017-11-30T21:01:48.726Z,90.00
2017-11-30T21:04:17.311Z,91.30
2017-11-30T21:06:43.924Z,91.00
2017-11-30T21:09:10.292Z,93.80
2017-11-30T21:11:37.452Z,96.60
2017-11-30T21:14:03.798Z,90.80
2017-11-30T21:16:30.192Z,91.50
2017-11-30T21:18:57.380Z,90.60
2017-11-30T21:21:24.540Z,91.00
2017-11-30T21:23:53.016Z,90.50
2017-11-30T21:26:20.176Z,90.40
2017-11-30T21:28:48.004Z,91.20
2017-11-30T21:31:14.356Z,90.50
2017-11-30T21:33:41.429Z,90.30
2017-11-30T21:36:08.588Z,90.60
2017-11-30T21:38:35.843Z,91.90
2017-11-30T21:41:02.180Z,90.80
2017-11-30T21:43:29.411Z,91.00
2017-11-30T21:45:55.752Z,91.40
2017-11-30T21:48:22.838Z,93.30
2017-11-30T21:50:49.184Z,89.60
2017-11-30T21:53:17.032Z,90.60
2017-11-30T21:55:43.964Z,90.60
2017-11-30T21:58:11.036Z,90.10
2017-11-30T22:00:38.296Z,93.10
2017-11-30T22:03:05.349Z,91.00
2017-11-30T22:05:33.216Z,91.40
2017-11-30T22:08:00.411Z,91.00
2017-11-30T22:10:27.528Z,90.90
2017-11-30T22:12:53.892Z,90.90
2017-11-30T22:15:21.012Z,91.80
2017-11-30T22:17:48.934Z,92.00
2017-11-30T22:20:16.021Z,90.70
2017-11-30T22:22:42.360Z,90.70
2017-11-30T22:25:09.511Z,90.30
2017-11-30T22:27:35.872Z,90.70
2017-11-30T22:30:03.640Z,91.00
2017-11-30T22:32:30.696Z,91.60
2017-11-30T22:34:58.152Z,91.40
2017-11-30T22:37:25.623Z,91.10
2017-11-30T22:39:52.673Z,90.90
2017-11-30T22:42:19.902Z,91.10
2017-11-30T22:44:46.264Z,90.90
2017-11-30T22:47:13.424Z,90.30
2017-11-30T22:49:40.471Z,89.60
2017-11-30T22:52:07.623Z,89.20
2017-11-30T22:54:34.895Z,89.30
2017-11-30T22:57:01.905Z,89.60
2017-11-30T22:59:28.224Z,89.50
2017-11-30T23:01:54.564Z,89.50
2017-11-30T23:04:21.664Z,89.10
2017-11-30T23:06:48.004Z,89.90
2017-11-30T23:09:15.321Z,90.30
2017-11-30T23:11:41.655Z,89.80
2017-11-30T23:14:07.968Z,89.60
2017-11-30T23:16:35.916Z,89.20
2017-11-30T23:19:02.302Z,89.20
2017-11-30T23:21:28.683Z,89.10
2017-11-30T23:23:55.836Z,88.80
2017-11-30T23:26:22.175Z,88.90
2017-11-30T23:28:48.535Z,89.40
2017-11-30T23:31:15.964Z,88.80
2017-11-30T23:33:42.979Z,88.70
2017-11-30T23:36:10.176Z,87.70
2017-11-30T23:38:37.226Z,88.00
2017-11-30T23:41:03.583Z,89.20
2017-11-30T23:43:30.820Z,89.30
2017-11-30T23:45:57.980Z,89.80
2017-11-30T23:48:25.004Z,88.70
2017-11-30T23:50:52.248Z,87.90
2017-11-30T23:53:19.452Z,87.30
2017-11-30T23:55:45.792Z,87.10
2017-11-30T23:58:12.940Z,86.80
